sensor_id;sensor_type;location;lat;lon;timestamp;P1;durP1;ratioP1;P2;durP2;ratioP2
11016;SDS011;54687;50.800;6.772;2023-05-10T00:00:07;5.05;;;4.72;;
11016;SDS011;54687;50.800;6.772;2023-05-10T00:02:34;5.15;;;4.75;;
11016;SDS011;54687;50.800;6.772;2023-05-10T00:05:02;4.70;;;4.30;;
11016;SDS011;54687;50.800;6.772;2023-05-10T00:07:29;5.10;;;4.70;;
11016;SDS011;54687;50.800;6.772;2023-05-10T00:09:59;4.28;;;3.97;;
11016;SDS011;54687;50.800;6.772;2023-05-10T00:12:26;4.38;;;4.07;;
11016;SDS011;54687;50.800;6.772;2023-05-10T00:14:53;4.45;;;4.10;;
11016;SDS011;54687;50.800;6.772;2023-05-10T00:17:21;4.80;;;4.50;;
11016;SDS011;54687;50.800;6.772;2023-05-10T00:19:47;4.47;;;4.18;;
11016;SDS011;54687;50.800;6.772;2023-05-10T00:22:14;4.43;;;4.13;;
11016;SDS011;54687;50.800;6.772;2023-05-10T00:24:40;4.38;;;4.07;;
11016;SDS011;54687;50.800;6.772;2023-05-10T00:27:08;4.72;;;4.43;;
11016;SDS011;54687;50.800;6.772;2023-05-10T00:29:38;4.18;;;3.90;;
11016;SDS011;54687;50.800;6.772;2023-05-10T00:32:04;4.78;;;4.47;;
11016;SDS011;54687;50.800;6.772;2023-05-10T00:34:31;5.05;;;4.65;;
11016;SDS011;54687;50.800;6.772;2023-05-10T00:36:58;5.10;;;4.80;;
11016;SDS011;54687;50.800;6.772;2023-05-10T00:39:25;5.65;;;5.15;;
11016;SDS011;54687;50.800;6.772;2023-05-10T00:41:53;5.07;;;4.78;;
11016;SDS011;54687;50.800;6.772;2023-05-10T00:44:21;6.10;;;5.70;;
11016;SDS011;54687;50.800;6.772;2023-05-10T00:46:49;5.65;;;5.25;;
11016;SDS011;54687;50.800;6.772;2023-05-10T00:49:17;5.38;;;5.07;;
11016;SDS011;54687;50.800;6.772;2023-05-10T00:51:44;6.22;;;5.82;;
11016;SDS011;54687;50.800;6.772;2023-05-10T00:54:11;6.00;;;5.50;;
11016;SDS011;54687;50.800;6.772;2023-05-10T00:56:41;5.85;;;5.45;;
11016;SDS011;54687;50.800;6.772;2023-05-10T00:59:13;5.57;;;5.18;;
11016;SDS011;54687;50.800;6.772;2023-05-10T01:01:42;5.13;;;4.80;;
11016;SDS011;54687;50.800;6.772;2023-05-10T01:04:10;4.70;;;4.40;;
11016;SDS011;54687;50.800;6.772;2023-05-10T01:06:37;4.50;;;4.20;;
11016;SDS011;54687;50.800;6.772;2023-05-10T01:09:05;4.43;;;4.13;;
11016;SDS011;54687;50.800;6.772;2023-05-10T01:11:33;4.35;;;4.05;;
11016;SDS011;54687;50.800;6.772;2023-05-10T01:14:00;4.28;;;3.90;;
11016;SDS011;54687;50.800;6.772;2023-05-10T01:16:28;3.92;;;3.63;;
11016;SDS011;54687;50.800;6.772;2023-05-10T01:18:59;3.60;;;3.40;;
11016;SDS011;54687;50.800;6.772;2023-05-10T01:21:27;3.17;;;2.97;;
11016;SDS011;54687;50.800;6.772;2023-05-10T01:24:09;3.78;;;3.40;;
11016;SDS011;54687;50.800;6.772;2023-05-10T01:29:48;3.20;;;3.00;;
11016;SDS011;54687;50.800;6.772;2023-05-10T01:32:31;3.40;;;3.15;;
11016;SDS011;54687;50.800;6.772;2023-05-10T01:35:06;3.40;;;3.10;;
11016;SDS011;54687;50.800;6.772;2023-05-10T01:37:40;3.53;;;3.33;;
11016;SDS011;54687;50.800;6.772;2023-05-10T01:40:14;3.60;;;3.40;;
11016;SDS011;54687;50.800;6.772;2023-05-10T01:42:47;4.40;;;4.10;;
11016;SDS011;54687;50.800;6.772;2023-05-10T01:45:19;5.82;;;5.43;;
11016;SDS011;54687;50.800;6.772;2023-05-10T01:47:54;6.85;;;6.35;;
11016;SDS011;54687;50.800;6.772;2023-05-10T01:50:29;6.40;;;5.90;;
11016;SDS011;54687;50.800;6.772;2023-05-10T01:52:57;6.97;;;6.47;;
11016;SDS011;54687;50.800;6.772;2023-05-10T01:55:27;7.03;;;6.53;;
11016;SDS011;54687;50.800;6.772;2023-05-10T01:58:00;7.97;;;6.88;;
11016;SDS011;54687;50.800;6.772;2023-05-10T02:00:30;7.35;;;6.75;;
11016;SDS011;54687;50.800;6.772;2023-05-10T02:03:00;7.30;;;6.72;;
11016;SDS011;54687;50.800;6.772;2023-05-10T02:05:34;7.60;;;6.97;;
11016;SDS011;54687;50.800;6.772;2023-05-10T02:08:05;8.68;;;7.95;;
11016;SDS011;54687;50.800;6.772;2023-05-10T02:10:32;7.85;;;7.22;;
11016;SDS011;54687;50.800;6.772;2023-05-10T02:13:01;7.55;;;7.00;;
11016;SDS011;54687;50.800;6.772;2023-05-10T02:15:30;8.40;;;7.70;;
11016;SDS011;54687;50.800;6.772;2023-05-10T02:18:01;8.70;;;8.05;;
11016;SDS011;54687;50.800;6.772;2023-05-10T02:20:32;8.27;;;7.57;;
11016;SDS011;54687;50.800;6.772;2023-05-10T02:23:00;8.52;;;7.70;;
11016;SDS011;54687;50.800;6.772;2023-05-10T02:25:31;7.93;;;7.32;;
11016;SDS011;54687;50.800;6.772;2023-05-10T02:28:01;7.57;;;6.88;;
11016;SDS011;54687;50.800;6.772;2023-05-10T02:30:31;7.72;;;7.03;;
11016;SDS011;54687;50.800;6.772;2023-05-10T02:33:02;7.53;;;7.03;;
11016;SDS011;54687;50.800;6.772;2023-05-10T02:35:31;8.20;;;7.50;;
11016;SDS011;54687;50.800;6.772;2023-05-10T02:37:58;8.15;;;7.45;;
11016;SDS011;54687;50.800;6.772;2023-05-10T02:40:28;8.65;;;7.85;;
11016;SDS011;54687;50.800;6.772;2023-05-10T02:42:56;9.10;;;8.20;;
11016;SDS011;54687;50.800;6.772;2023-05-10T02:45:24;9.63;;;8.82;;
11016;SDS011;54687;50.800;6.772;2023-05-10T02:47:54;9.88;;;9.07;;
11016;SDS011;54687;50.800;6.772;2023-05-10T02:50:24;9.63;;;8.82;;
11016;SDS011;54687;50.800;6.772;2023-05-10T02:52:55;10.30;;;9.32;;
11016;SDS011;54687;50.800;6.772;2023-05-10T02:55:26;10.93;;;9.82;;
11016;SDS011;54687;50.800;6.772;2023-05-10T02:57:59;10.95;;;10.05;;
11016;SDS011;54687;50.800;6.772;2023-05-10T03:00:27;12.35;;;11.25;;
11016;SDS011;54687;50.800;6.772;2023-05-10T03:02:55;11.40;;;10.38;;
11016;SDS011;54687;50.800;6.772;2023-05-10T03:05:23;11.00;;;10.00;;
11016;SDS011;54687;50.800;6.772;2023-05-10T03:07:50;10.32;;;9.43;;
11016;SDS011;54687;50.800;6.772;2023-05-10T03:10:17;9.18;;;8.27;;
11016;SDS011;54687;50.800;6.772;2023-05-10T03:12:52;9.43;;;8.63;;
11016;SDS011;54687;50.800;6.772;2023-05-10T03:15:31;9.35;;;8.55;;
11016;SDS011;54687;50.800;6.772;2023-05-10T03:18:06;9.07;;;8.25;;
11016;SDS011;54687;50.800;6.772;2023-05-10T03:20:42;9.50;;;8.70;;
11016;SDS011;54687;50.800;6.772;2023-05-10T03:23:12;10.13;;;9.23;;
11016;SDS011;54687;50.800;6.772;2023-05-10T03:25:53;10.63;;;9.57;;
11016;SDS011;54687;50.800;6.772;2023-05-10T03:28:20;10.55;;;9.65;;
11016;SDS011;54687;50.800;6.772;2023-05-10T03:30:47;10.52;;;9.63;;
11016;SDS011;54687;50.800;6.772;2023-05-10T03:33:16;9.77;;;8.88;;
11016;SDS011;54687;50.800;6.772;2023-05-10T03:35:44;10.15;;;9.15;;
11016;SDS011;54687;50.800;6.772;2023-05-10T03:38:13;10.90;;;10.00;;
11016;SDS011;54687;50.800;6.772;2023-05-10T03:40:39;11.98;;;10.98;;
11016;SDS011;54687;50.800;6.772;2023-05-10T03:43:07;11.82;;;10.82;;
11016;SDS011;54687;50.800;6.772;2023-05-10T03:45:35;14.07;;;12.73;;
11016;SDS011;54687;50.800;6.772;2023-05-10T03:48:02;11.93;;;10.77;;
11016;SDS011;54687;50.800;6.772;2023-05-10T03:50:31;12.70;;;11.70;;
11016;SDS011;54687;50.800;6.772;2023-05-10T03:53:01;13.55;;;12.30;;
11016;SDS011;54687;50.800;6.772;2023-05-10T03:55:29;12.25;;;11.15;;
11016;SDS011;54687;50.800;6.772;2023-05-10T03:58:01;13.20;;;12.13;;
11016;SDS011;54687;50.800;6.772;2023-05-10T04:00:28;13.32;;;12.10;;
11016;SDS011;54687;50.800;6.772;2023-05-10T04:02:56;12.70;;;11.50;;
11016;SDS011;54687;50.800;6.772;2023-05-10T04:05:22;11.02;;;10.05;;
11016;SDS011;54687;50.800;6.772;2023-05-10T04:07:49;12.20;;;11.10;;
11016;SDS011;54687;50.800;6.772;2023-05-10T04:10:17;11.95;;;10.95;;
11016;SDS011;54687;50.800;6.772;2023-05-10T04:12:44;11.90;;;10.90;;
11016;SDS011;54687;50.800;6.772;2023-05-10T04:15:10;12.50;;;11.50;;
11016;SDS011;54687;50.800;6.772;2023-05-10T04:17:37;14.00;;;11.88;;
11016;SDS011;54687;50.800;6.772;2023-05-10T04:20:04;11.25;;;10.32;;
11016;SDS011;54687;50.800;6.772;2023-05-10T04:22:31;11.98;;;10.88;;
11016;SDS011;54687;50.800;6.772;2023-05-10T04:24:58;12.73;;;11.52;;
11016;SDS011;54687;50.800;6.772;2023-05-10T04:27:26;10.70;;;9.85;;
11016;SDS011;54687;50.800;6.772;2023-05-10T04:29:54;11.52;;;10.43;;
11016;SDS011;54687;50.800;6.772;2023-05-10T04:32:20;10.63;;;9.63;;
11016;SDS011;54687;50.800;6.772;2023-05-10T04:34:47;11.52;;;10.43;;
11016;SDS011;54687;50.800;6.772;2023-05-10T04:37:13;10.93;;;9.82;;
11016;SDS011;54687;50.800;6.772;2023-05-10T04:39:40;11.63;;;10.63;;
11016;SDS011;54687;50.800;6.772;2023-05-10T04:42:07;12.55;;;11.45;;
11016;SDS011;54687;50.800;6.772;2023-05-10T04:44:35;11.57;;;10.68;;
11016;SDS011;54687;50.800;6.772;2023-05-10T04:47:01;10.77;;;9.88;;
11016;SDS011;54687;50.800;6.772;2023-05-10T04:49:29;11.38;;;10.38;;
11016;SDS011;54687;50.800;6.772;2023-05-10T04:51:56;11.55;;;10.55;;
11016;SDS011;54687;50.800;6.772;2023-05-10T04:54:23;13.80;;;12.50;;
11016;SDS011;54687;50.800;6.772;2023-05-10T04:56:49;12.88;;;11.75;;
11016;SDS011;54687;50.800;6.772;2023-05-10T04:59:17;13.70;;;12.52;;
11016;SDS011;54687;50.800;6.772;2023-05-10T05:01:45;14.20;;;12.80;;
11016;SDS011;54687;50.800;6.772;2023-05-10T05:04:11;15.00;;;13.55;;
11016;SDS011;54687;50.800;6.772;2023-05-10T05:06:39;14.30;;;12.90;;
11016;SDS011;54687;50.800;6.772;2023-05-10T05:09:06;14.02;;;12.93;;
11016;SDS011;54687;50.800;6.772;2023-05-10T05:11:32;15.13;;;13.77;;
11016;SDS011;54687;50.800;6.772;2023-05-10T05:14:00;14.82;;;13.50;;
11016;SDS011;54687;50.800;6.772;2023-05-10T05:16:27;14.93;;;13.63;;
11016;SDS011;54687;50.800;6.772;2023-05-10T05:18:54;14.88;;;13.38;;
11016;SDS011;54687;50.800;6.772;2023-05-10T05:21:22;13.85;;;12.68;;
11016;SDS011;54687;50.800;6.772;2023-05-10T05:23:51;16.00;;;14.40;;
11016;SDS011;54687;50.800;6.772;2023-05-10T05:26:18;14.52;;;13.27;;
11016;SDS011;54687;50.800;6.772;2023-05-10T05:28:44;13.52;;;12.40;;
11016;SDS011;54687;50.800;6.772;2023-05-10T05:31:11;13.90;;;12.48;;
11016;SDS011;54687;50.800;6.772;2023-05-10T05:33:38;14.48;;;12.40;;
11016;SDS011;54687;50.800;6.772;2023-05-10T05:36:07;14.10;;;12.93;;
11016;SDS011;54687;50.800;6.772;2023-05-10T05:38:34;13.35;;;12.15;;
11016;SDS011;54687;50.800;6.772;2023-05-10T05:41:00;12.57;;;11.48;;
11016;SDS011;54687;50.800;6.772;2023-05-10T05:43:27;12.48;;;11.32;;
11016;SDS011;54687;50.800;6.772;2023-05-10T05:45:55;11.63;;;10.52;;
11016;SDS011;54687;50.800;6.772;2023-05-10T05:48:22;11.07;;;10.02;;
11016;SDS011;54687;50.800;6.772;2023-05-10T05:50:49;10.48;;;9.52;;
11016;SDS011;54687;50.800;6.772;2023-05-10T05:53:17;10.93;;;10.00;;
11016;SDS011;54687;50.800;6.772;2023-05-10T05:55:50;10.35;;;9.45;;
11016;SDS011;54687;50.800;6.772;2023-05-10T05:58:17;13.80;;;9.40;;
11016;SDS011;54687;50.800;6.772;2023-05-10T06:00:44;10.63;;;8.77;;
11016;SDS011;54687;50.800;6.772;2023-05-10T06:03:11;9.07;;;8.02;;
11016;SDS011;54687;50.800;6.772;2023-05-10T06:05:38;8.93;;;8.02;;
11016;SDS011;54687;50.800;6.772;2023-05-10T06:08:05;8.43;;;7.50;;
11016;SDS011;54687;50.800;6.772;2023-05-10T06:10:34;7.95;;;7.25;;
11016;SDS011;54687;50.800;6.772;2023-05-10T06:13:01;9.50;;;7.43;;
11016;SDS011;54687;50.800;6.772;2023-05-10T06:15:27;7.68;;;6.85;;
11016;SDS011;54687;50.800;6.772;2023-05-10T06:17:54;9.73;;;7.28;;
11016;SDS011;54687;50.800;6.772;2023-05-10T06:20:21;6.82;;;6.18;;
11016;SDS011;54687;50.800;6.772;2023-05-10T06:22:47;6.95;;;6.25;;
11016;SDS011;54687;50.800;6.772;2023-05-10T06:25:14;7.60;;;5.75;;
11016;SDS011;54687;50.800;6.772;2023-05-10T06:27:46;6.20;;;5.68;;
11016;SDS011;54687;50.800;6.772;2023-05-10T06:30:15;7.18;;;5.93;;
11016;SDS011;54687;50.800;6.772;2023-05-10T06:32:41;7.57;;;6.00;;
11016;SDS011;54687;50.800;6.772;2023-05-10T06:35:10;6.45;;;5.82;;
11016;SDS011;54687;50.800;6.772;2023-05-10T06:37:38;7.03;;;6.25;;
11016;SDS011;54687;50.800;6.772;2023-05-10T06:40:05;8.85;;;5.70;;
11016;SDS011;54687;50.800;6.772;2023-05-10T06:42:33;9.25;;;7.20;;
11016;SDS011;54687;50.800;6.772;2023-05-10T06:45:01;7.22;;;6.28;;
11016;SDS011;54687;50.800;6.772;2023-05-10T06:47:29;7.32;;;6.15;;
11016;SDS011;54687;50.800;6.772;2023-05-10T06:49:57;10.82;;;6.13;;
11016;SDS011;54687;50.800;6.772;2023-05-10T06:52:24;7.75;;;6.00;;
11016;SDS011;54687;50.800;6.772;2023-05-10T06:54:51;8.75;;;6.63;;
11016;SDS011;54687;50.800;6.772;2023-05-10T06:57:20;8.43;;;6.15;;
11016;SDS011;54687;50.800;6.772;2023-05-10T06:59:47;8.65;;;6.00;;
11016;SDS011;54687;50.800;6.772;2023-05-10T07:02:17;6.22;;;5.63;;
11016;SDS011;54687;50.800;6.772;2023-05-10T07:04:46;8.70;;;5.80;;
11016;SDS011;54687;50.800;6.772;2023-05-10T07:07:13;5.53;;;5.03;;
11016;SDS011;54687;50.800;6.772;2023-05-10T07:09:40;17.42;;;9.68;;
11016;SDS011;54687;50.800;6.772;2023-05-10T07:12:07;6.78;;;5.78;;
11016;SDS011;54687;50.800;6.772;2023-05-10T07:14:33;7.97;;;6.40;;
11016;SDS011;54687;50.800;6.772;2023-05-10T07:17:00;5.80;;;5.28;;
11016;SDS011;54687;50.800;6.772;2023-05-10T07:19:28;6.88;;;5.53;;
11016;SDS011;54687;50.800;6.772;2023-05-10T07:22:01;5.10;;;4.60;;
11016;SDS011;54687;50.800;6.772;2023-05-10T07:24:27;7.30;;;5.35;;
11016;SDS011;54687;50.800;6.772;2023-05-10T07:26:54;5.57;;;4.90;;
11016;SDS011;54687;50.800;6.772;2023-05-10T07:29:21;5.63;;;4.22;;
11016;SDS011;54687;50.800;6.772;2023-05-10T07:31:47;5.88;;;4.75;;
11016;SDS011;54687;50.800;6.772;2023-05-10T07:34:14;5.75;;;5.25;;
11016;SDS011;54687;50.800;6.772;2023-05-10T07:36:42;4.80;;;4.25;;
11016;SDS011;54687;50.800;6.772;2023-05-10T07:39:09;5.22;;;4.22;;
11016;SDS011;54687;50.800;6.772;2023-05-10T07:41:35;5.07;;;4.03;;
11016;SDS011;54687;50.800;6.772;2023-05-10T07:44:04;4.15;;;3.75;;
11016;SDS011;54687;50.800;6.772;2023-05-10T07:46:30;4.97;;;4.10;;
11016;SDS011;54687;50.800;6.772;2023-05-10T07:48:57;4.45;;;4.05;;
11016;SDS011;54687;50.800;6.772;2023-05-10T07:51:23;4.15;;;3.53;;
11016;SDS011;54687;50.800;6.772;2023-05-10T07:53:52;4.00;;;3.67;;
11016;SDS011;54687;50.800;6.772;2023-05-10T07:56:20;6.65;;;3.85;;
11016;SDS011;54687;50.800;6.772;2023-05-10T07:58:49;5.75;;;3.33;;
11016;SDS011;54687;50.800;6.772;2023-05-10T08:01:16;3.30;;;3.00;;
11016;SDS011;54687;50.800;6.772;2023-05-10T08:03:43;2.60;;;2.20;;
11016;SDS011;54687;50.800;6.772;2023-05-10T08:06:10;4.90;;;1.70;;
11016;SDS011;54687;50.800;6.772;2023-05-10T08:08:37;1.73;;;1.63;;
11016;SDS011;54687;50.800;6.772;2023-05-10T08:11:05;3.60;;;1.60;;
11016;SDS011;54687;50.800;6.772;2023-05-10T08:13:32;2.40;;;1.38;;
11016;SDS011;54687;50.800;6.772;2023-05-10T08:15:59;3.40;;;2.15;;
11016;SDS011;54687;50.800;6.772;2023-05-10T08:18:25;1.38;;;1.23;;
11016;SDS011;54687;50.800;6.772;2023-05-10T08:20:53;1.58;;;1.42;;
11016;SDS011;54687;50.800;6.772;2023-05-10T08:23:19;1.48;;;1.35;;
11016;SDS011;54687;50.800;6.772;2023-05-10T08:25:46;2.17;;;1.13;;
11016;SDS011;54687;50.800;6.772;2023-05-10T08:28:17;1.98;;;1.40;;
11016;SDS011;54687;50.800;6.772;2023-05-10T08:30:44;2.33;;;1.20;;
11016;SDS011;54687;50.800;6.772;2023-05-10T08:33:11;1.23;;;1.05;;
11016;SDS011;54687;50.800;6.772;2023-05-10T08:35:37;2.38;;;1.30;;
11016;SDS011;54687;50.800;6.772;2023-05-10T08:38:04;1.70;;;1.30;;
11016;SDS011;54687;50.800;6.772;2023-05-10T08:40:31;5.97;;;3.10;;
11016;SDS011;54687;50.800;6.772;2023-05-10T08:42:59;1.60;;;1.50;;
11016;SDS011;54687;50.800;6.772;2023-05-10T08:45:32;2.22;;;1.65;;
11016;SDS011;54687;50.800;6.772;2023-05-10T08:48:01;1.85;;;1.75;;
11016;SDS011;54687;50.800;6.772;2023-05-10T08:50:28;2.47;;;1.67;;
11016;SDS011;54687;50.800;6.772;2023-05-10T08:52:57;3.28;;;2.03;;
11016;SDS011;54687;50.800;6.772;2023-05-10T08:55:26;2.55;;;1.75;;
11016;SDS011;54687;50.800;6.772;2023-05-10T08:57:53;2.38;;;1.98;;
11016;SDS011;54687;50.800;6.772;2023-05-10T09:00:21;2.30;;;1.80;;
11016;SDS011;54687;50.800;6.772;2023-05-10T09:02:51;3.33;;;2.50;;
11016;SDS011;54687;50.800;6.772;2023-05-10T09:05:19;9.13;;;8.23;;
11016;SDS011;54687;50.800;6.772;2023-05-10T09:07:45;4.30;;;3.88;;
11016;SDS011;54687;50.800;6.772;2023-05-10T09:10:12;2.90;;;2.70;;
11016;SDS011;54687;50.800;6.772;2023-05-10T09:12:40;5.38;;;2.70;;
11016;SDS011;54687;50.800;6.772;2023-05-10T09:15:07;3.55;;;3.17;;
11016;SDS011;54687;50.800;6.772;2023-05-10T09:17:35;3.63;;;3.33;;
11016;SDS011;54687;50.800;6.772;2023-05-10T09:20:05;3.95;;;3.55;;
11016;SDS011;54687;50.800;6.772;2023-05-10T09:22:34;6.82;;;6.13;;
11016;SDS011;54687;50.800;6.772;2023-05-10T09:25:04;7.95;;;7.15;;
11016;SDS011;54687;50.800;6.772;2023-05-10T09:27:33;10.32;;;8.07;;
11016;SDS011;54687;50.800;6.772;2023-05-10T09:30:00;9.07;;;8.18;;
11016;SDS011;54687;50.800;6.772;2023-05-10T09:32:38;9.13;;;8.23;;
11016;SDS011;54687;50.800;6.772;2023-05-10T09:35:10;10.65;;;9.50;;
11016;SDS011;54687;50.800;6.772;2023-05-10T09:37:38;10.07;;;9.07;;
11016;SDS011;54687;50.800;6.772;2023-05-10T09:40:07;10.65;;;9.02;;
11016;SDS011;54687;50.800;6.772;2023-05-10T09:42:37;9.48;;;8.60;;
11016;SDS011;54687;50.800;6.772;2023-05-10T09:45:05;9.38;;;7.90;;
11016;SDS011;54687;50.800;6.772;2023-05-10T09:47:33;7.80;;;7.05;;
11016;SDS011;54687;50.800;6.772;2023-05-10T09:50:00;8.10;;;7.30;;
11016;SDS011;54687;50.800;6.772;2023-05-10T09:52:30;9.13;;;8.05;;
11016;SDS011;54687;50.800;6.772;2023-05-10T09:55:11;7.40;;;6.70;;
11016;SDS011;54687;50.800;6.772;2023-05-10T09:57:38;5.80;;;5.07;;
11016;SDS011;54687;50.800;6.772;2023-05-10T10:00:07;5.68;;;3.80;;
11016;SDS011;54687;50.800;6.772;2023-05-10T10:02:35;3.50;;;3.30;;
11016;SDS011;54687;50.800;6.772;2023-05-10T10:05:02;4.15;;;3.20;;
11016;SDS011;54687;50.800;6.772;2023-05-10T10:07:30;2.30;;;2.10;;
11016;SDS011;54687;50.800;6.772;2023-05-10T10:09:59;3.25;;;1.90;;
11016;SDS011;54687;50.800;6.772;2023-05-10T10:12:27;1.80;;;1.70;;
11016;SDS011;54687;50.800;6.772;2023-05-10T10:14:54;2.20;;;1.80;;
11016;SDS011;54687;50.800;6.772;2023-05-10T10:17:21;1.80;;;1.70;;
11016;SDS011;54687;50.800;6.772;2023-05-10T10:19:51;2.13;;;2.03;;
11016;SDS011;54687;50.800;6.772;2023-05-10T10:22:17;2.30;;;2.20;;
11016;SDS011;54687;50.800;6.772;2023-05-10T10:24:46;2.40;;;1.77;;
11016;SDS011;54687;50.800;6.772;2023-05-10T10:27:15;1.80;;;1.70;;
11016;SDS011;54687;50.800;6.772;2023-05-10T10:29:51;1.90;;;1.80;;
11016;SDS011;54687;50.800;6.772;2023-05-10T10:32:30;3.00;;;1.65;;
11016;SDS011;54687;50.800;6.772;2023-05-10T10:35:08;1.67;;;1.58;;
11016;SDS011;54687;50.800;6.772;2023-05-10T10:37:43;1.90;;;1.80;;
11016;SDS011;54687;50.800;6.772;2023-05-10T10:40:26;1.50;;;1.40;;
11016;SDS011;54687;50.800;6.772;2023-05-10T10:42:55;2.72;;;2.53;;
11016;SDS011;54687;50.800;6.772;2023-05-10T10:45:23;2.00;;;1.90;;
11016;SDS011;54687;50.800;6.772;2023-05-10T10:47:53;2.28;;;1.70;;
11016;SDS011;54687;50.800;6.772;2023-05-10T10:50:42;1.83;;;1.58;;
11016;SDS011;54687;50.800;6.772;2023-05-10T10:53:11;1.48;;;1.40;;
11016;SDS011;54687;50.800;6.772;2023-05-10T10:55:45;1.77;;;1.67;;
11016;SDS011;54687;50.800;6.772;2023-05-10T10:58:18;6.63;;;3.05;;
11016;SDS011;54687;50.800;6.772;2023-05-10T11:01:13;2.15;;;1.95;;
11016;SDS011;54687;50.800;6.772;2023-05-10T11:03:41;2.63;;;2.45;;
11016;SDS011;54687;50.800;6.772;2023-05-10T11:06:42;5.35;;;3.13;;
11016;SDS011;54687;50.800;6.772;2023-05-10T11:09:09;3.00;;;2.80;;
11016;SDS011;54687;50.800;6.772;2023-05-10T11:11:50;2.67;;;2.47;;
11016;SDS011;54687;50.800;6.772;2023-05-10T11:14:21;2.20;;;2.10;;
11016;SDS011;54687;50.800;6.772;2023-05-10T11:16:48;1.90;;;1.80;;
11016;SDS011;54687;50.800;6.772;2023-05-10T11:19:16;1.88;;;1.77;;
11016;SDS011;54687;50.800;6.772;2023-05-10T11:21:44;1.75;;;1.42;;
11016;SDS011;54687;50.800;6.772;2023-05-10T11:24:13;2.25;;;2.13;;
11016;SDS011;54687;50.800;6.772;2023-05-10T11:26:41;1.90;;;1.80;;
11016;SDS011;54687;50.800;6.772;2023-05-10T11:29:09;1.90;;;1.80;;
11016;SDS011;54687;50.800;6.772;2023-05-10T11:31:42;2.30;;;2.20;;
11016;SDS011;54687;50.800;6.772;2023-05-10T11:34:12;1.75;;;1.65;;
11016;SDS011;54687;50.800;6.772;2023-05-10T11:36:51;1.83;;;1.40;;
11016;SDS011;54687;50.800;6.772;2023-05-10T11:39:18;1.50;;;1.40;;
11016;SDS011;54687;50.800;6.772;2023-05-10T11:41:46;1.35;;;1.30;;
11016;SDS011;54687;50.800;6.772;2023-05-10T11:44:15;2.10;;;2.00;;
11016;SDS011;54687;50.800;6.772;2023-05-10T11:46:42;1.98;;;1.17;;
11016;SDS011;54687;50.800;6.772;2023-05-10T11:49:11;1.23;;;1.23;;
11016;SDS011;54687;50.800;6.772;2023-05-10T11:51:38;1.17;;;1.08;;
11016;SDS011;54687;50.800;6.772;2023-05-10T11:54:10;1.52;;;1.25;;
11016;SDS011;54687;50.800;6.772;2023-05-10T11:56:37;2.75;;;1.40;;
11016;SDS011;54687;50.800;6.772;2023-05-10T11:59:05;1.80;;;1.70;;
11016;SDS011;54687;50.800;6.772;2023-05-10T12:01:33;1.30;;;1.23;;
11016;SDS011;54687;50.800;6.772;2023-05-10T12:04:00;1.20;;;1.20;;
11016;SDS011;54687;50.800;6.772;2023-05-10T12:06:30;1.23;;;1.20;;
11016;SDS011;54687;50.800;6.772;2023-05-10T12:09:02;1.50;;;1.40;;
11016;SDS011;54687;50.800;6.772;2023-05-10T12:11:32;1.48;;;1.48;;
11016;SDS011;54687;50.800;6.772;2023-05-10T12:14:04;1.98;;;1.83;;
11016;SDS011;54687;50.800;6.772;2023-05-10T12:16:33;1.60;;;1.38;;
11016;SDS011;54687;50.800;6.772;2023-05-10T12:19:00;1.52;;;1.42;;
11016;SDS011;54687;50.800;6.772;2023-05-10T12:21:29;1.50;;;1.40;;
11016;SDS011;54687;50.800;6.772;2023-05-10T12:23:59;2.38;;;1.60;;
11016;SDS011;54687;50.800;6.772;2023-05-10T12:26:28;2.22;;;1.77;;
11016;SDS011;54687;50.800;6.772;2023-05-10T12:29:00;2.00;;;1.67;;
11016;SDS011;54687;50.800;6.772;2023-05-10T12:31:53;1.15;;;1.15;;
11016;SDS011;54687;50.800;6.772;2023-05-10T12:34:24;1.92;;;1.83;;
11016;SDS011;54687;50.800;6.772;2023-05-10T12:36:52;1.83;;;1.73;;
11016;SDS011;54687;50.800;6.772;2023-05-10T12:39:19;1.40;;;1.30;;
11016;SDS011;54687;50.800;6.772;2023-05-10T12:41:47;1.60;;;1.50;;
11016;SDS011;54687;50.800;6.772;2023-05-10T12:44:13;1.75;;;1.63;;
11016;SDS011;54687;50.800;6.772;2023-05-10T12:46:40;1.33;;;1.33;;
11016;SDS011;54687;50.800;6.772;2023-05-10T12:49:08;2.85;;;1.60;;
11016;SDS011;54687;50.800;6.772;2023-05-10T12:51:35;1.75;;;1.38;;
11016;SDS011;54687;50.800;6.772;2023-05-10T12:54:02;3.10;;;2.13;;
11016;SDS011;54687;50.800;6.772;2023-05-10T12:56:29;1.90;;;1.67;;
11016;SDS011;54687;50.800;6.772;2023-05-10T12:58:55;2.15;;;1.95;;
11016;SDS011;54687;50.800;6.772;2023-05-10T13:01:23;2.35;;;2.00;;
11016;SDS011;54687;50.800;6.772;2023-05-10T13:03:49;2.30;;;2.03;;
11016;SDS011;54687;50.800;6.772;2023-05-10T13:06:17;1.85;;;1.65;;
11016;SDS011;54687;50.800;6.772;2023-05-10T13:08:46;2.15;;;1.80;;
11016;SDS011;54687;50.800;6.772;2023-05-10T13:11:13;2.38;;;1.90;;
11016;SDS011;54687;50.800;6.772;2023-05-10T13:13:41;1.85;;;1.75;;
11016;SDS011;54687;50.800;6.772;2023-05-10T13:16:08;1.95;;;1.80;;
11016;SDS011;54687;50.800;6.772;2023-05-10T13:18:37;1.52;;;1.42;;
11016;SDS011;54687;50.800;6.772;2023-05-10T13:21:04;2.15;;;1.35;;
11016;SDS011;54687;50.800;6.772;2023-05-10T13:23:32;2.78;;;1.65;;
11016;SDS011;54687;50.800;6.772;2023-05-10T13:25:59;2.85;;;1.58;;
11016;SDS011;54687;50.800;6.772;2023-05-10T13:28:25;4.70;;;3.08;;
11016;SDS011;54687;50.800;6.772;2023-05-10T13:30:52;2.03;;;1.80;;
11016;SDS011;54687;50.800;6.772;2023-05-10T13:33:18;2.95;;;1.60;;
11016;SDS011;54687;50.800;6.772;2023-05-10T13:35:46;1.70;;;1.60;;
11016;SDS011;54687;50.800;6.772;2023-05-10T13:38:13;2.05;;;1.70;;
11016;SDS011;54687;50.800;6.772;2023-05-10T13:40:42;1.58;;;1.48;;
11016;SDS011;54687;50.800;6.772;2023-05-10T13:43:08;1.73;;;1.63;;
11016;SDS011;54687;50.800;6.772;2023-05-10T13:45:36;2.38;;;1.75;;
11016;SDS011;54687;50.800;6.772;2023-05-10T13:48:02;1.92;;;1.83;;
11016;SDS011;54687;50.800;6.772;2023-05-10T13:50:29;2.53;;;2.33;;
11016;SDS011;54687;50.800;6.772;2023-05-10T13:52:56;2.08;;;1.90;;
11016;SDS011;54687;50.800;6.772;2023-05-10T13:55:23;2.17;;;2.05;;
11016;SDS011;54687;50.800;6.772;2023-05-10T13:57:51;2.30;;;2.20;;
11016;SDS011;54687;50.800;6.772;2023-05-10T14:00:18;2.85;;;2.03;;
11016;SDS011;54687;50.800;6.772;2023-05-10T14:02:45;2.17;;;2.08;;
11016;SDS011;54687;50.800;6.772;2023-05-10T14:05:12;2.28;;;2.08;;
11016;SDS011;54687;50.800;6.772;2023-05-10T14:07:40;2.35;;;1.98;;
11016;SDS011;54687;50.800;6.772;2023-05-10T14:10:06;2.00;;;1.90;;
11016;SDS011;54687;50.800;6.772;2023-05-10T14:12:35;2.35;;;1.50;;
11016;SDS011;54687;50.800;6.772;2023-05-10T14:15:04;1.65;;;1.55;;
11016;SDS011;54687;50.800;6.772;2023-05-10T14:17:32;2.05;;;1.63;;
11016;SDS011;54687;50.800;6.772;2023-05-10T14:19:59;2.53;;;2.33;;
11016;SDS011;54687;50.800;6.772;2023-05-10T14:22:29;5.03;;;2.60;;
11016;SDS011;54687;50.800;6.772;2023-05-10T14:24:56;2.30;;;2.10;;
11016;SDS011;54687;50.800;6.772;2023-05-10T14:27:23;1.90;;;1.80;;
11016;SDS011;54687;50.800;6.772;2023-05-10T14:29:49;3.50;;;2.05;;
11016;SDS011;54687;50.800;6.772;2023-05-10T14:32:18;2.97;;;2.08;;
11016;SDS011;54687;50.800;6.772;2023-05-10T14:34:45;2.00;;;1.90;;
11016;SDS011;54687;50.800;6.772;2023-05-10T14:37:12;2.75;;;2.55;;
11016;SDS011;54687;50.800;6.772;2023-05-10T14:39:40;2.55;;;2.30;;
11016;SDS011;54687;50.800;6.772;2023-05-10T14:42:07;2.30;;;2.10;;
11016;SDS011;54687;50.800;6.772;2023-05-10T14:44:34;2.60;;;2.40;;
11016;SDS011;54687;50.800;6.772;2023-05-10T14:47:00;2.10;;;2.00;;
11016;SDS011;54687;50.800;6.772;2023-05-10T14:49:29;4.30;;;2.15;;
11016;SDS011;54687;50.800;6.772;2023-05-10T14:51:55;2.58;;;2.38;;
11016;SDS011;54687;50.800;6.772;2023-05-10T14:54:22;2.88;;;2.45;;